Time;durP1;ratioP1;P1;durP2;ratioP2;P2;SDS_P1;SDS_P2;PMS_P1;PMS_P2;Temp;Humidity;BMP_temperature;BMP_pressure;BME280_temperature;BME280_humidity;BME280_pressure;Samples;Min_cycle;Max_cycle;Signal;HPM_P1;HPM_P2
2021/09/03 00:02:24;;;;;;;30.77;15.73;;;;;;;15.70;79.03;102024.13;5060693;28;20476;-74
2021/09/03 00:04:51;;;;;;;27.75;15.25;;;;;;;15.66;79.25;102025.44;5092164;28;20096;-73
2021/09/03 00:07:18;;;;;;;27.42;15.10;;;;;;;15.60;79.67;102020.69;5077405;28;20471;-73
2021/09/03 00:09:45;;;;;;;27.80;15.52;;;;;;;15.60;79.87;102027.88;5077848;28;20043;-74
2021/09/03 00:12:12;;;;;;;28.92;16.25;;;;;;;15.52;79.23;102021.47;5093884;28;20072;-73
2021/09/03 00:14:38;;;;;;;28.35;15.57;;;;;;;15.48;79.83;102014.78;5077595;28;20039;-74
2021/09/03 00:17:05;;;;;;;29.42;15.63;;;;;;;15.52;79.56;102018.81;5079619;28;20067;-73
2021/09/03 00:19:32;;;;;;;29.77;15.85;;;;;;;15.51;79.88;102018.97;5081503;28;20093;-74
2021/09/03 00:21:59;;;;;;;30.27;15.68;;;;;;;15.47;80.06;102022.94;5097983;28;20046;-73
2021/09/03 00:24:26;;;;;;;30.30;16.50;;;;;;;15.40;80.48;102021.88;5116173;28;20039;-73
2021/09/03 00:26:53;;;;;;;27.90;15.13;;;;;;;15.39;80.57;102018.38;5080558;28;20035;-74
2021/09/03 00:29:20;;;;;;;29.50;15.23;;;;;;;15.35;80.59;102020.53;5080758;28;20054;-74
2021/09/03 00:31:46;;;;;;;29.42;16.30;;;;;;;15.34;80.42;102018.00;5096072;28;20043;-74
2021/09/03 00:34:13;;;;;;;27.23;15.90;;;;;;;15.34;80.37;102018.00;5081206;28;20047;-73
2021/09/03 00:36:42;;;;;;;28.17;16.30;;;;;;;15.27;80.64;102009.75;5080998;28;20126;-73
2021/09/03 00:39:09;;;;;;;25.73;15.13;;;;;;;15.25;80.95;102014.41;5097999;28;20043;-74
2021/09/03 00:41:36;;;;;;;30.10;15.60;;;;;;;15.25;80.98;102011.75;5124838;27;20403;-74
2021/09/03 00:44:02;;;;;;;27.50;15.43;;;;;;;15.22;80.88;102009.34;5118487;27;20043;-73
2021/09/03 00:46:29;;;;;;;26.88;15.65;;;;;;;15.21;80.74;102004.16;5122945;27;20088;-73
2021/09/03 00:48:57;;;;;;;26.52;15.73;;;;;;;15.19;80.84;101999.00;5102795;28;20487;-74
2021/09/03 00:51:25;;;;;;;31.75;16.77;;;;;;;15.19;80.83;102008.81;5097667;28;20040;-73
2021/09/03 00:53:51;;;;;;;34.92;15.98;;;;;;;15.13;80.71;102005.81;5097223;28;20104;-73
2021/09/03 00:56:18;;;;;;;29.45;16.30;;;;;;;15.10;80.94;102005.25;5096828;28;20047;-73
2021/09/03 00:58:45;;;;;;;27.90;15.57;;;;;;;15.10;80.92;102006.09;5097374;28;20039;-73
2021/09/03 01:01:12;;;;;;;30.45;16.40;;;;;;;15.08;81.15;102005.41;5097398;28;20054;-74
2021/09/03 01:03:39;;;;;;;27.25;16.08;;;;;;;15.00;81.71;102008.00;5097051;28;20400;-73
2021/09/03 01:06:06;;;;;;;27.48;15.70;;;;;;;14.98;81.63;102010.81;5096705;28;20052;-73
2021/09/03 01:08:33;;;;;;;28.30;16.15;;;;;;;14.98;81.49;102004.63;5063710;28;20548;-74
2021/09/03 01:11:00;;;;;;;27.67;15.73;;;;;;;14.93;81.08;101997.06;5096447;28;20036;-73
2021/09/03 01:13:27;;;;;;;24.50;15.05;;;;;;;14.93;81.04;101993.56;5095231;28;20484;-73
2021/09/03 01:15:54;;;;;;;28.30;15.13;;;;;;;14.93;80.94;101999.72;5063647;28;20536;-73
2021/09/03 01:18:20;;;;;;;27.38;15.10;;;;;;;14.91;81.06;101999.06;5080418;28;20071;-73
2021/09/03 01:20:47;;;;;;;25.17;15.23;;;;;;;14.86;81.36;101985.34;5080113;28;20514;-73
2021/09/03 01:23:14;;;;;;;26.42;15.60;;;;;;;14.83;81.63;101988.31;5096840;28;20040;-73
2021/09/03 01:25:41;;;;;;;29.63;15.48;;;;;;;14.84;81.63;101989.13;5096347;28;20073;-73
2021/09/03 01:28:08;;;;;;;29.35;15.93;;;;;;;14.79;81.66;101984.25;5096343;28;20125;-73
2021/09/03 01:30:35;;;;;;;26.88;15.93;;;;;;;14.79;81.57;101984.25;5096747;28;20050;-74
2021/09/03 01:33:02;;;;;;;31.10;15.82;;;;;;;14.73;81.89;101976.84;5079960;28;20046;-73
2021/09/03 01:35:29;;;;;;;27.50;15.70;;;;;;;14.73;81.89;101979.50;5096750;28;20047;-73
2021/09/03 01:37:55;;;;;;;27.88;15.45;;;;;;;14.70;82.21;101972.66;5114149;28;20067;-73
2021/09/03 01:40:22;;;;;;;25.88;15.63;;;;;;;14.68;82.44;101973.78;5096077;28;20043;-73
2021/09/03 01:42:49;;;;;;;33.05;16.25;;;;;;;14.66;82.48;101976.63;5079493;28;20055;-74
2021/09/03 01:45:16;;;;;;;25.70;16.02;;;;;;;14.61;82.70;101973.56;5062719;28;20043;-74
2021/09/03 01:47:42;;;;;;;29.25;15.40;;;;;;;14.66;82.21;101973.94;5114250;28;20373;-73
2021/09/03 01:50:10;;;;;;;24.17;15.15;;;;;;;14.66;82.47;101970.41;5094753;28;20045;-73
2021/09/03 01:52:36;;;;;;;29.17;16.00;;;;;;;14.67;82.37;101969.44;5078817;28;20035;-74
2021/09/03 01:55:04;;;;;;;28.92;16.75;;;;;;;14.64;82.33;101961.72;5096161;28;20043;-73
2021/09/03 01:57:31;;;;;;;26.60;15.52;;;;;;;14.62;82.56;101955.69;5079032;28;20040;-73
2021/09/03 01:59:57;;;;;;;27.15;15.90;;;;;;;14.59;82.71;101962.19;5079106;28;20047;-73
2021/09/03 02:02:24;;;;;;;31.90;16.95;;;;;;;14.57;83.00;101957.00;5114174;28;20040;-73
2021/09/03 02:04:51;;;;;;;27.48;15.27;;;;;;;14.56;82.97;101959.78;5095633;28;20040;-73
2021/09/03 02:07:19;;;;;;;28.33;16.55;;;;;;;14.55;83.09;101958.94;5095702;28;20039;-73
2021/09/03 02:09:45;;;;;;;26.77;15.57;;;;;;;14.55;83.00;101963.44;5112907;27;20043;-73
2021/09/03 02:12:13;;;;;;;33.80;17.10;;;;;;;14.52;83.30;101953.91;5101285;28;20511;-73
2021/09/03 02:14:41;;;;;;;28.13;16.48;;;;;;;14.53;83.24;101955.56;5113873;28;20066;-73
2021/09/03 02:17:08;;;;;;;30.58;16.63;;;;;;;14.55;83.18;101942.94;5095766;28;20035;-73
2021/09/03 02:19:35;;;;;;;26.23;15.32;;;;;;;14.55;83.15;101950.94;5093920;28;20068;-73
2021/09/03 02:22:02;;;;;;;26.67;16.45;;;;;;;14.52;83.16;101951.22;5113337;28;20093;-73
2021/09/03 02:24:29;;;;;;;26.92;15.82;;;;;;;14.50;83.31;101950.53;5113823;28;20112;-73
2021/09/03 02:26:56;;;;;;;26.23;15.75;;;;;;;14.50;83.11;101945.19;5095099;28;20047;-73
2021/09/03 02:29:23;;;;;;;30.95;16.52;;;;;;;14.50;83.05;101947.88;5113828;28;20508;-73
2021/09/03 02:31:51;;;;;;;32.17;17.48;;;;;;;14.50;83.08;101947.03;5095355;28;20441;-74
2021/09/03 02:34:17;;;;;;;28.75;16.00;;;;;;;14.48;82.97;101939.19;5095103;28;20067;-73
2021/09/03 02:36:45;;;;;;;29.88;15.90;;;;;;;14.49;82.87;101943.50;5077937;28;20050;-73
2021/09/03 02:39:12;;;;;;;34.33;16.73;;;;;;;14.44;83.39;101947.63;5095344;28;20144;-73
2021/09/03 02:41:39;;;;;;;31.95;16.33;;;;;;;14.38;83.60;101944.56;5080121;27;20039;-74
2021/09/03 02:44:05;;;;;;;30.35;16.23;;;;;;;14.35;83.68;101946.69;5096970;28;20104;-73
2021/09/03 02:46:32;;;;;;;28.20;16.77;;;;;;;14.36;83.42;101938.53;5097861;27;20099;-73
2021/09/03 02:48:59;;;;;;;30.67;16.60;;;;;;;14.35;83.40;101944.88;5133269;27;20511;-73
2021/09/03 02:51:26;;;;;;;27.67;16.70;;;;;;;14.39;83.34;101943.59;5081729;27;20510;-73
2021/09/03 02:53:52;;;;;;;26.67;15.93;;;;;;;14.40;83.05;101942.56;5098603;27;20118;-73
2021/09/03 02:56:19;;;;;;;25.55;15.20;;;;;;;14.40;83.06;101931.06;5098339;27;20038;-73
2021/09/03 02:58:46;;;;;;;32.28;16.25;;;;;;;14.38;83.12;101930.38;5099448;27;20074;-73
2021/09/03 03:01:12;;;;;;;28.95;17.13;;;;;;;14.38;83.09;101931.22;5138618;27;20039;-73
2021/09/03 03:03:39;;;;;;;27.80;15.98;;;;;;;14.37;82.99;101928.69;5115775;27;20568;-74
2021/09/03 03:06:06;;;;;;;25.75;16.08;;;;;;;14.32;83.26;101920.31;5114656;27;20066;-73
2021/09/03 03:08:33;;;;;;;23.67;15.88;;;;;;;14.29;82.83;101929.44;5081803;28;20504;-73
2021/09/03 03:10:59;;;;;;;30.27;16.05;;;;;;;14.29;82.92;101928.59;5079318;28;20039;-73
2021/09/03 03:13:28;;;;;;;29.27;15.98;;;;;;;14.24;83.07;101922.88;5092994;28;20506;-73
2021/09/03 03:15:55;;;;;;;24.92;15.82;;;;;;;14.22;83.35;101920.34;5094749;28;20046;-73
2021/09/03 03:18:22;;;;;;;26.50;16.15;;;;;;;14.19;83.19;101918.00;5094814;28;20057;-73
2021/09/03 03:20:50;;;;;;;25.67;15.80;;;;;;;14.14;83.07;101921.09;5094945;28;20567;-73
2021/09/03 03:23:18;;;;;;;29.67;16.00;;;;;;;14.10;83.48;101910.88;5112882;28;20072;-73
2021/09/03 03:25:45;;;;;;;28.20;15.88;;;;;;;14.07;83.80;101912.00;5094709;28;20484;-73
2021/09/03 03:28:13;;;;;;;30.15;15.50;;;;;;;14.08;83.51;101904.84;5094401;28;20065;-73
2021/09/03 03:30:40;;;;;;;32.00;18.80;;;;;;;14.09;83.29;101906.53;5078082;28;20036;-73
2021/09/03 03:33:07;;;;;;;34.03;17.90;;;;;;;14.11;83.23;101907.22;5112809;28;20053;-73
2021/09/03 03:35:34;;;;;;;31.27;17.27;;;;;;;14.07;83.06;101900.50;5112838;28;20491;-73
2021/09/03 03:38:01;;;;;;;31.42;16.83;;;;;;;14.07;83.19;101908.50;5092693;28;20377;-73
2021/09/03 03:40:27;;;;;;;24.50;15.77;;;;;;;14.05;83.17;101900.66;5095147;28;20089;-73
2021/09/03 03:42:54;;;;;;;26.02;16.55;;;;;;;14.02;83.55;101900.94;5077489;28;20039;-73
2021/09/03 03:45:21;;;;;;;28.58;16.38;;;;;;;14.00;83.52;101901.09;5112805;28;20050;-73
2021/09/03 03:47:48;;;;;;;25.63;15.00;;;;;;;14.05;83.16;101900.66;5094350;28;20043;-73
2021/09/03 03:50:14;;;;;;;30.58;16.13;;;;;;;14.01;82.93;101894.78;5094762;28;20122;-73
2021/09/03 03:52:41;;;;;;;27.55;15.63;;;;;;;14.01;83.18;101894.78;5115760;28;20050;-73
2021/09/03 03:55:09;;;;;;;29.30;17.13;;;;;;;13.98;83.09;101896.91;5098877;28;20046;-73
2021/09/03 03:57:35;;;;;;;27.77;16.02;;;;;;;13.94;82.90;101885.69;5080938;28;20050;-73
2021/09/03 04:00:04;;;;;;;31.65;17.45;;;;;;;13.90;83.35;101888.78;5098344;28;20054;-73
2021/09/03 04:02:42;;;;;;;33.72;16.13;;;;;;;13.88;83.27;101890.75;5110174;27;20752;-72
2021/09/03 04:05:09;;;;;;;29.02;16.02;;;;;;;13.81;83.32;101890.53;5109301;28;20531;-72
2021/09/03 04:07:36;;;;;;;27.55;16.15;;;;;;;13.84;83.04;101887.53;5108940;28;20385;-73
2021/09/03 04:10:04;;;;;;;30.52;16.30;;;;;;;13.85;82.98;101885.75;5075626;28;20073;-73
2021/09/03 04:12:31;;;;;;;27.45;17.00;;;;;;;13.83;83.01;101885.88;5098739;28;20605;-73
2021/09/03 04:14:58;;;;;;;28.63;16.58;;;;;;;13.81;83.32;101880.69;5092373;28;20074;-73
2021/09/03 04:17:24;;;;;;;28.25;16.33;;;;;;;13.80;83.28;101892.34;5109902;28;20058;-73
2021/09/03 04:19:51;;;;;;;28.50;15.52;;;;;;;13.77;83.31;101884.66;5110185;28;20040;-73
2021/09/03 04:22:18;;;;;;;28.08;15.98;;;;;;;13.76;83.34;101879.47;5092081;28;20522;-73
2021/09/03 04:24:45;;;;;;;28.65;15.82;;;;;;;13.73;83.19;101879.75;5108733;28;20051;-73
2021/09/03 04:27:11;;;;;;;31.83;15.45;;;;;;;13.70;83.18;101874.69;5108493;28;20050;-73
2021/09/03 04:29:38;;;;;;;30.17;16.30;;;;;;;13.72;83.56;101878.09;5091641;28;20048;-73
2021/09/03 04:32:05;;;;;;;33.47;16.73;;;;;;;13.71;83.42;101876.38;5109971;28;20046;-73
2021/09/03 04:34:32;;;;;;;27.45;15.82;;;;;;;13.63;83.23;101885.97;5108620;28;20173;-74
2021/09/03 04:37:00;;;;;;;30.83;16.33;;;;;;;13.66;83.25;101879.50;5108124;28;20040;-73
2021/09/03 04:39:26;;;;;;;28.92;16.65;;;;;;;13.68;82.82;101885.53;5108367;28;20046;-73
2021/09/03 04:41:53;;;;;;;29.73;17.98;;;;;;;13.67;83.06;101883.00;5108565;28;20045;-73
2021/09/03 04:44:20;;;;;;;27.13;15.57;;;;;;;13.61;83.60;101885.28;5109957;28;20043;-73
2021/09/03 04:46:47;;;;;;;29.75;16.05;;;;;;;13.63;83.15;101891.28;5108844;28;20044;-73
2021/09/03 04:49:13;;;;;;;27.40;16.48;;;;;;;13.63;83.04;101901.94;5107900;28;20040;-73
2021/09/03 04:51:40;;;;;;;27.88;16.83;;;;;;;13.64;83.34;101897.47;5091520;28;20040;-72
2021/09/03 04:54:07;;;;;;;30.42;16.02;;;;;;;13.60;82.90;101890.75;5109046;28;20039;-72
2021/09/03 04:56:34;;;;;;;30.30;17.20;;;;;;;13.59;83.19;101889.91;5074137;28;20044;-72
2021/09/03 04:59:00;;;;;;;30.88;16.38;;;;;;;13.59;82.95;101884.56;5109500;28;20042;-72
2021/09/03 05:01:27;;;;;;;31.55;17.60;;;;;;;13.54;83.08;101881.50;5090879;28;20044;-74
2021/09/03 05:03:54;;;;;;;35.08;17.95;;;;;;;13.55;83.06;101883.19;5107862;28;20039;-73
2021/09/03 05:06:21;;;;;;;27.60;17.15;;;;;;;13.50;82.66;101880.13;5109058;28;20511;-72
2021/09/03 05:08:48;;;;;;;41.08;20.48;;;;;;;13.47;83.11;101879.56;5109168;28;20488;-74
2021/09/03 05:11:15;;;;;;;34.40;18.48;;;;;;;13.53;83.14;101879.81;5089846;28;20396;-74
2021/09/03 05:13:41;;;;;;;33.10;18.58;;;;;;;13.53;82.71;101879.81;5059543;28;20131;-72
2021/09/03 05:16:08;;;;;;;29.73;17.92;;;;;;;13.51;83.19;101879.13;5074338;28;20040;-73
2021/09/03 05:18:35;;;;;;;34.42;17.48;;;;;;;13.53;83.47;101879.81;5060183;28;20463;-73
2021/09/03 05:21:02;;;;;;;26.52;16.55;;;;;;;13.53;83.54;101881.66;5075376;28;20036;-74
2021/09/03 05:23:29;;;;;;;34.72;18.42;;;;;;;13.48;83.67;101884.75;5057761;28;20088;-74
2021/09/03 05:25:56;;;;;;;30.35;17.52;;;;;;;13.55;83.74;101882.34;5067012;28;20074;-73
2021/09/03 05:28:22;;;;;;;27.40;16.10;;;;;;;13.56;83.50;101881.38;5057305;28;20497;-73
2021/09/03 05:30:49;;;;;;;33.42;17.60;;;;;;;13.57;83.81;101881.22;5073758;28;20044;-74
2021/09/03 05:33:16;;;;;;;34.70;17.98;;;;;;;13.59;83.88;101884.56;5070976;28;20040;-74
2021/09/03 05:35:43;;;;;;;33.38;18.17;;;;;;;13.60;83.88;101883.56;5110526;28;20039;-74
2021/09/03 05:38:10;;;;;;;40.33;17.80;;;;;;;13.64;83.74;101884.13;5093501;28;20067;-74
2021/09/03 05:40:37;;;;;;;31.17;17.90;;;;;;;13.63;83.86;101890.47;5061820;28;20052;-74
2021/09/03 05:43:04;;;;;;;30.40;17.23;;;;;;;13.66;84.26;101892.84;5073223;28;20155;-74
2021/09/03 05:45:32;;;;;;;30.55;18.15;;;;;;;13.70;84.29;101890.69;5089621;28;20044;-74
2021/09/03 05:48:00;;;;;;;36.08;17.90;;;;;;;13.74;84.22;101892.94;5081243;28;20075;-74
2021/09/03 05:50:27;;;;;;;31.80;17.20;;;;;;;13.78;83.93;101888.97;5075584;28;20474;-74
2021/09/03 05:52:54;;;;;;;35.40;17.27;;;;;;;13.80;83.93;101891.50;5059187;28;20032;-75
2021/09/03 05:55:21;;;;;;;35.38;17.15;;;;;;;13.87;84.12;101886.44;5094131;28;20040;-75
2021/09/03 05:57:51;;;;;;;37.13;18.38;;;;;;;13.95;84.07;101894.50;5083502;28;20040;-75
2021/09/03 06:00:17;;;;;;;42.38;18.20;;;;;;;14.01;83.90;101889.44;5074356;28;20496;-74
2021/09/03 06:02:44;;;;;;;35.33;18.10;;;;;;;14.08;83.72;101895.03;5092004;28;20429;-75
2021/09/03 06:05:11;;;;;;;31.23;16.38;;;;;;;14.15;83.78;101895.25;5091718;28;20070;-74
2021/09/03 06:07:38;;;;;;;34.17;18.33;;;;;;;14.19;83.50;101894.00;5092207;28;20040;-75
2021/09/03 06:10:06;;;;;;;33.55;17.48;;;;;;;14.26;82.73;101891.53;5070824;28;20072;-75
2021/09/03 06:12:33;;;;;;;30.42;17.10;;;;;;;14.32;83.10;101893.63;5076209;28;20043;-75
2021/09/03 06:15:00;;;;;;;31.50;17.23;;;;;;;14.32;83.07;101881.09;5090657;28;20071;-74
2021/09/03 06:17:27;;;;;;;35.80;16.73;;;;;;;14.39;82.61;101882.19;5075552;28;20493;-75
2021/09/03 06:19:59;;;;;;;33.25;17.33;;;;;;;14.44;82.49;101884.38;5092595;28;20416;-75
2021/09/03 06:22:26;;;;;;;40.33;17.05;;;;;;;14.48;82.37;101885.78;5091918;28;20051;-74
2021/09/03 06:24:52;;;;;;;38.53;16.65;;;;;;;14.51;82.57;101887.28;5091618;28;20040;-75
2021/09/03 06:27:20;;;;;;;32.33;17.05;;;;;;;14.51;82.37;101882.78;5093326;28;20040;-75
2021/09/03 06:29:47;;;;;;;40.38;16.73;;;;;;;14.56;82.55;101875.16;5074693;28;20044;-75
2021/09/03 06:32:16;;;;;;;39.33;17.42;;;;;;;14.64;82.14;101879.75;5091639;28;20105;-75
2021/09/03 06:34:46;;;;;;;30.48;17.25;;;;;;;14.64;81.93;101885.09;5073487;28;20123;-75
2021/09/03 06:37:14;;;;;;;30.00;17.17;;;;;;;14.69;82.11;101882.81;5084251;28;20067;-74
2021/09/03 06:39:41;;;;;;;36.33;17.70;;;;;;;14.77;81.89;101882.03;5087642;28;20409;-75
2021/09/03 06:42:09;;;;;;;35.60;18.42;;;;;;;14.80;81.95;101878.25;5098305;28;20534;-75
2021/09/03 06:44:36;;;;;;;32.65;17.85;;;;;;;14.84;82.10;101890.28;5091812;28;20489;-75
2021/09/03 06:47:04;;;;;;;33.58;18.52;;;;;;;14.90;82.20;101887.84;5071197;28;20136;-74
2021/09/03 06:49:33;;;;;;;33.03;19.00;;;;;;;14.92;81.54;101893.06;5089238;28;20067;-75
2021/09/03 06:52:02;;;;;;;33.17;18.10;;;;;;;14.95;81.66;101893.56;5094651;28;20036;-75
2021/09/03 06:54:29;;;;;;;37.33;19.38;;;;;;;15.02;81.44;101890.28;5092994;28;20047;-75
2021/09/03 06:56:56;;;;;;;32.00;19.08;;;;;;;15.08;81.98;101898.53;5074910;28;20074;-75
2021/09/03 06:59:22;;;;;;;33.05;19.05;;;;;;;15.14;81.59;101899.72;5092129;28;20036;-75
2021/09/03 07:01:49;;;;;;;32.92;18.38;;;;;;;15.16;81.79;101895.88;5073968;28;20560;-75
2021/09/03 07:04:16;;;;;;;37.92;19.90;;;;;;;15.27;81.83;101886.78;5073379;28;20544;-75
2021/09/03 07:06:43;;;;;;;32.05;18.52;;;;;;;15.33;81.37;101893.31;5091812;28;20396;-75
2021/09/03 07:09:10;;;;;;;31.98;19.30;;;;;;;15.32;80.79;101884.47;5090465;28;20040;-75
2021/09/03 07:11:37;;;;;;;35.58;19.35;;;;;;;15.35;80.93;101878.81;5089832;28;20077;-74
2021/09/03 07:14:04;;;;;;;34.97;19.15;;;;;;;15.41;80.68;101887.19;5070929;28;20045;-76
2021/09/03 07:16:32;;;;;;;32.05;17.83;;;;;;;15.41;80.57;101890.72;5045878;28;20035;-76
2021/09/03 07:19:02;;;;;;;35.80;18.35;;;;;;;15.46;80.61;101879.53;5092675;28;20036;-76
2021/09/03 07:21:30;;;;;;;27.80;16.53;;;;;;;15.51;80.25;101885.25;5091132;28;20577;-74
2021/09/03 07:23:59;;;;;;;35.35;17.67;;;;;;;15.58;80.15;101888.97;5057831;28;20294;-76
2021/09/03 07:26:27;;;;;;;32.08;17.23;;;;;;;15.67;79.76;101887.19;5090864;28;20101;-74
2021/09/03 07:28:54;;;;;;;31.13;17.30;;;;;;;15.67;80.01;101881.81;5091433;28;20086;-76
2021/09/03 07:31:21;;;;;;;29.30;16.52;;;;;;;15.65;79.28;101884.66;5091297;28;20040;-77
2021/09/03 07:33:48;;;;;;;31.17;17.08;;;;;;;15.77;78.81;101879.06;5095005;28;20040;-76
2021/09/03 07:36:16;;;;;;;29.48;17.33;;;;;;;15.83;78.72;101878.44;5095555;28;20040;-75
2021/09/03 07:38:43;;;;;;;32.55;16.83;;;;;;;15.90;78.92;101879.47;5091411;28;20044;-74
2021/09/03 07:41:09;;;;;;;29.15;16.20;;;;;;;16.00;78.39;101872.13;5091482;28;20050;-74
2021/09/03 07:43:36;;;;;;;29.50;16.48;;;;;;;16.03;77.12;101874.47;5091184;28;20044;-74
2021/09/03 07:46:03;;;;;;;30.40;16.27;;;;;;;16.09;76.57;101870.31;5091499;28;20480;-76
2021/09/03 07:48:30;;;;;;;30.42;16.85;;;;;;;16.40;75.42;101875.91;5081070;28;20037;-73
2021/09/03 07:50:57;;;;;;;33.47;17.20;;;;;;;16.31;75.67;101871.53;5061002;28;20052;-76
2021/09/03 07:53:24;;;;;;;32.55;17.20;;;;;;;16.41;75.28;101872.22;5098561;28;20046;-80
2021/09/03 07:55:51;;;;;;;32.13;18.00;;;;;;;16.58;75.09;101873.09;5087571;28;20036;-78
2021/09/03 07:58:18;;;;;;;32.20;18.35;;;;;;;16.95;73.19;101865.56;5088646;28;20503;-79
2021/09/03 08:00:45;;;;;;;27.75;17.45;;;;;;;17.19;72.06;101865.56;5084668;28;20046;-79
2021/09/03 08:03:12;;;;;;;33.00;17.30;;;;;;;17.00;72.67;101866.75;5055694;28;20063;-79
2021/09/03 08:05:39;;;;;;;33.65;17.63;;;;;;;16.98;72.56;101858.03;5088794;28;20047;-78
2021/09/03 08:08:07;;;;;;;33.75;17.83;;;;;;;17.04;73.10;101867.25;5086721;28;20093;-77
2021/09/03 08:10:35;;;;;;;33.25;17.58;;;;;;;17.35;71.32;101869.19;5091021;28;20048;-78
2021/09/03 08:13:04;;;;;;;31.25;17.13;;;;;;;17.23;71.82;101864.19;5078133;28;20119;-78
2021/09/03 08:15:32;;;;;;;29.73;16.58;;;;;;;17.29;71.94;101864.53;5075175;28;20037;-78
2021/09/03 08:17:59;;;;;;;26.48;16.20;;;;;;;17.39;71.24;101865.16;5077397;28;20059;-79
2021/09/03 08:20:27;;;;;;;34.95;16.77;;;;;;;17.61;70.65;101866.28;5091043;28;20062;-78
2021/09/03 08:22:53;;;;;;;26.35;16.60;;;;;;;17.92;69.16;101860.97;5098355;28;20032;-78
2021/09/03 08:25:21;;;;;;;28.05;15.90;;;;;;;17.80;69.80;101870.41;5072551;28;20078;-78
2021/09/03 08:27:49;;;;;;;29.65;15.98;;;;;;;17.92;69.79;101860.97;5053894;28;20040;-78
2021/09/03 08:30:18;;;;;;;28.05;15.50;;;;;;;18.13;69.22;101863.03;5088304;28;20565;-78
2021/09/03 08:32:45;;;;;;;26.40;15.13;;;;;;;18.23;69.99;101869.03;5090367;28;20484;-78
2021/09/03 08:35:13;;;;;;;32.20;14.65;;;;;;;18.27;68.92;101861.44;5099809;28;20043;-77
2021/09/03 08:37:40;;;;;;;30.52;14.90;;;;;;;18.40;69.06;101872.44;5090678;28;20044;-79
2021/09/03 08:40:10;;;;;;;28.75;14.82;;;;;;;18.57;68.40;101866.94;5086065;28;20083;-78
2021/09/03 08:42:38;;;;;;;26.10;14.02;;;;;;;18.74;67.48;101863.13;5105445;28;20079;-78
2021/09/03 08:45:07;;;;;;;26.02;13.60;;;;;;;18.85;67.84;101861.88;5061121;28;20036;-78
2021/09/03 08:47:34;;;;;;;26.92;14.05;;;;;;;18.93;67.06;101872.56;5084086;28;20165;-77
2021/09/03 08:50:01;;;;;;;27.30;14.43;;;;;;;19.06;67.89;101865.72;5095235;28;20408;-79
2021/09/03 08:52:29;;;;;;;25.75;13.70;;;;;;;19.14;66.18;101871.88;5106381;28;20105;-79
2021/09/03 08:54:56;;;;;;;24.15;14.40;;;;;;;19.28;65.97;101869.34;5107391;28;20040;-79
2021/09/03 08:57:22;;;;;;;26.02;14.18;;;;;;;19.36;65.63;101866.59;5092694;28;20037;-79
2021/09/03 08:59:49;;;;;;;26.02;13.85;;;;;;;19.41;65.19;101866.88;5076948;28;20119;-79
2021/09/03 09:02:20;;;;;;;25.92;13.88;;;;;;;19.54;64.10;101875.13;5093329;28;20533;-78
2021/09/03 09:04:51;;;;;;;24.80;13.27;;;;;;;19.94;61.98;101864.91;5092134;28;20083;-72
2021/09/03 09:07:24;;;;;;;;;;;;;;;19.92;62.34;101868.81;5088194;28;20044;-79
2021/09/03 09:09:50;;;;;;;25.60;13.38;;;;;;;20.16;62.22;101859.56;5091929;28;20027;-77
2021/09/03 09:12:19;;;;;;;20.60;12.20;;;;;;;20.35;61.72;101859.97;5075240;28;20040;-76
2021/09/03 09:15:09;;;;;;;20.58;12.65;;;;;;;20.33;62.42;101863.66;5092179;28;20069;-76
2021/09/03 09:17:39;;;;;;;23.00;12.23;;;;;;;20.46;61.52;101854.06;5092317;28;20061;-77
2021/09/03 09:20:09;;;;;;;27.42;12.65;;;;;;;20.68;62.53;101855.75;5088797;28;20143;-77
2021/09/03 09:22:57;;;;;;;24.15;12.43;;;;;;;20.93;62.54;101855.31;5082832;28;20118;-77
2021/09/03 09:25:28;;;;;;;25.40;11.90;;;;;;;21.44;59.63;101854.19;5092322;28;20051;-76
2021/09/03 09:28:14;;;;;;;21.67;12.18;;;;;;;22.94;55.43;101846.06;5083498;28;20044;-77
2021/09/03 09:30:42;;;;;;;21.35;11.77;;;;;;;24.06;51.55;101854.13;5091849;28;20123;-77
2021/09/03 09:33:12;;;;;;;22.20;12.13;;;;;;;25.12;47.08;101840.78;5093176;28;20044;-76
2021/09/03 09:35:42;;;;;;;21.92;11.73;;;;;;;26.20;44.20;101845.56;5093015;28;20112;-77
2021/09/03 09:38:09;;;;;;;18.63;11.40;;;;;;;26.90;43.03;101835.84;5095303;28;20123;-77
2021/09/03 09:40:45;;;;;;;24.80;10.82;;;;;;;27.54;41.63;101837.78;5087806;28;20415;-78
2021/09/03 09:43:37;;;;;;;23.05;10.93;;;;;;;28.61;38.83;101830.78;5092964;28;20055;-78
2021/09/03 09:46:18;;;;;;;19.25;10.70;;;;;;;29.13;38.68;101828.81;5076248;28;20070;-79
2021/09/03 09:48:56;;;;;;;19.13;10.47;;;;;;;29.60;37.49;101831.09;5093492;28;20436;-78
2021/09/03 09:51:30;;;;;;;22.63;10.35;;;;;;;29.92;37.59;101822.97;5095257;28;20040;-78
2021/09/03 09:54:18;;;;;;;24.88;11.63;;;;;;;29.73;36.11;101822.47;5094559;28;20040;-77
2021/09/03 09:56:49;;;;;;;17.88;10.73;;;;;;;29.56;35.76;101813.53;5093979;28;20044;-78
2021/09/03 09:59:17;;;;;;;17.70;10.10;;;;;;;29.77;36.46;101822.81;5087209;28;20089;-78
2021/09/03 10:01:47;;;;;;;19.85;11.70;;;;;;;29.64;36.51;101815.81;5091745;28;20060;-78
2021/09/03 10:04:18;;;;;;;18.80;11.88;;;;;;;29.29;36.00;101820.59;5090741;28;20513;-78
2021/09/03 10:06:47;;;;;;;17.83;10.68;;;;;;;28.59;38.45;101818.47;5074487;28;20059;-78
2021/09/03 10:09:17;;;;;;;22.20;11.20;;;;;;;27.99;38.93;101814.44;5075610;28;20032;-78
2021/09/03 10:11:48;;;;;;;18.02;10.85;;;;;;;27.27;39.74;101813.84;5075784;28;20078;-78
2021/09/03 10:14:16;;;;;;;;;;;;;;;26.83;41.03;101809.81;5093046;28;20040;-78
2021/09/03 10:16:45;;;;;;;20.98;10.40;;;;;;;26.76;42.61;101805.34;5092510;28;20388;-79
2021/09/03 10:19:16;;;;;;;27.08;14.32;;;;;;;26.93;42.67;101807.34;5087982;28;20040;-73
2021/09/03 10:21:43;;;;;;;24.15;12.25;;;;;;;26.96;42.27;101801.41;5091433;28;20051;-74
2021/09/03 10:24:15;;;;;;;106.57;69.40;;;;;;;26.61;42.90;101799.53;5091608;28;20032;-76
2021/09/03 10:26:45;;;;;;;110.13;56.05;;;;;;;26.69;42.96;101791.03;5091918;28;20136;-74
2021/09/03 10:29:35;;;;;;;24.98;11.07;;;;;;;26.85;42.29;101792.22;5075627;28;20036;-75
2021/09/03 10:34:52;;;;;;;30.52;11.90;;;;;;;26.93;42.86;101791.00;5088901;27;20877;-73
2021/09/03 10:40:04;;;;;;;22.05;11.32;;;;;;;26.10;43.13;101785.47;5007432;27;1190562;-74
2021/09/03 10:45:23;;;;;;;20.73;11.63;;;;;;;26.04;43.39;101779.06;5107086;27;20125;-77
2021/09/03 10:48:03;;;;;;;17.67;9.43;;;;;;;26.27;42.06;101780.19;5093635;28;20044;-76
2021/09/03 10:50:53;;;;;;;23.08;9.50;;;;;;;26.08;40.99;101781.34;5092432;28;20043;-76
2021/09/03 10:53:26;;;;;;;21.88;9.10;;;;;;;25.90;41.34;101780.28;5102429;28;20070;-78
2021/09/03 10:59:05;;;;;;;18.02;9.73;;;;;;;25.83;41.74;101765.97;5126273;27;20838;-79
2021/09/03 11:01:37;;;;;;;19.63;9.38;;;;;;;25.70;43.79;101756.13;5109869;28;20043;-79
2021/09/03 11:04:11;;;;;;;16.85;9.20;;;;;;;25.73;44.17;101763.00;5119173;28;20086;-78
2021/09/03 11:06:40;;;;;;;20.35;8.85;;;;;;;25.79;42.88;101753.91;5117623;28;20037;-78
2021/09/03 11:09:28;;;;;;;19.08;9.13;;;;;;;25.91;43.93;101764.84;5112836;28;20499;-78
2021/09/03 11:12:12;;;;;;;16.70;8.57;;;;;;;26.10;41.78;101754.75;5102644;28;20511;-79
2021/09/03 11:14:40;;;;;;;18.17;8.15;;;;;;;26.16;42.26;101754.63;5112298;27;20458;-78
2021/09/03 11:17:11;;;;;;;21.27;8.68;;;;;;;26.16;40.08;101745.63;5114253;27;20042;-78
2021/09/03 11:19:44;;;;;;;13.70;7.70;;;;;;;26.15;40.92;101744.81;5088204;28;20048;-76
2021/09/03 11:22:13;;;;;;;16.33;8.20;;;;;;;25.90;41.89;101742.25;5102019;28;20131;-75
2021/09/03 11:24:43;;;;;;;17.98;8.18;;;;;;;25.90;41.24;101736.81;5112780;28;20127;-75
2021/09/03 11:27:14;;;;;;;18.10;7.90;;;;;;;25.93;41.93;101743.72;5119975;28;20041;-74